Terminal Aerodrome Forecast
Issued by NWS

Home | Current Version | Previous Version | Text Only | Print | Product List | Glossary On
Versions: 1 2 3 4 5 6 7 8 9 10 11 12 13 14 15 16 17 18
000
FTUS42 KMLB 252336 CCA
TAFTIX
TAF COR
KTIX 252336Z 2600/2624 03007KT P6SM FEW035 SCT250
     FM260300 VRB03KT P6SM FEW015
     FM261400 33005KT P6SM SCT025
     FM261900 03010KT P6SM FEW035
      AMD NOT SKED 2601/2611=

USA.gov is the U.S. government's official web portal to all federal, state and local government web resources and services.